Time;durP1;ratioP1;P1;durP2;ratioP2;P2;SDS_P1;SDS_P2;PMS_P1;PMS_P2;Temp;Humidity;BMP_temperature;BMP_pressure;BME280_temperature;BME280_humidity;BME280_pressure;Samples;Min_cycle;Max_cycle;Signal;HPM_P1;HPM_P2
2022/06/21 00:00:32;;;;;;;17.75;7.13;;;;;;;19.91;76.20;92420.88;4804525;29;20065;-76
2022/06/21 00:03:20;;;;;;;10.52;6.95;;;;;;;19.87;76.55;92414.72;4788479;29;20034;-76
2022/06/21 00:05:48;;;;;;;17.05;7.28;;;;;;;19.82;76.78;92414.22;4804474;29;20034;-76
2022/06/21 00:08:21;;;;;;;19.88;8.30;;;;;;;19.76;77.05;92414.47;4804497;29;20041;-76
2022/06/21 00:10:48;;;;;;;17.80;7.80;;;;;;;19.75;77.23;92425.47;4804023;29;20049;-76
2022/06/21 00:13:17;;;;;;;11.82;7.30;;;;;;;19.69;77.75;92427.59;4804753;29;20045;-76
2022/06/21 00:15:45;;;;;;;14.18;7.13;;;;;;;19.65;77.98;92426.69;4804503;29;20027;-76
2022/06/21 00:18:13;;;;;;;17.90;7.32;;;;;;;19.61;78.21;92428.53;4804334;29;20046;-76
2022/06/21 00:20:39;;;;;;;13.50;7.63;;;;;;;19.61;77.66;92430.38;4804234;29;20085;-76
2022/06/21 00:23:06;;;;;;;14.70;8.02;;;;;;;19.60;77.80;92423.56;4773272;29;20109;-76
2022/06/21 00:25:32;;;;;;;11.43;6.72;;;;;;;19.59;78.24;92419.34;4787855;29;20141;-75
2022/06/21 00:27:57;;;;;;;12.75;7.18;;;;;;;19.56;79.18;92424.22;4788196;29;20042;-76
2022/06/21 00:30:23;;;;;;;11.68;6.78;;;;;;;19.51;79.19;92427.13;4804170;29;20416;-76
2022/06/21 00:32:53;;;;;;;13.95;7.25;;;;;;;19.45;79.26;92423.19;4804053;29;20043;-76
2022/06/21 00:35:21;;;;;;;12.38;7.50;;;;;;;19.43;79.52;92422.00;4787637;29;20053;-76
2022/06/21 00:37:47;;;;;;;12.38;7.70;;;;;;;19.43;79.35;92419.34;4804328;29;20026;-75
2022/06/21 00:40:32;;;;;;;15.13;8.00;;;;;;;19.37;80.07;92415.44;4787867;29;20559;-76
2022/06/21 00:43:09;;;;;;;19.88;7.20;;;;;;;19.28;80.63;92415.59;4788012;29;20042;-75
2022/06/21 00:45:40;;;;;;;14.52;7.38;;;;;;;19.27;80.30;92411.38;4803921;29;20046;-75
2022/06/21 00:48:32;;;;;;;18.03;7.67;;;;;;;19.27;80.28;92414.81;4787907;29;20092;-76
2022/06/21 00:51:07;;;;;;;15.57;7.65;;;;;;;19.26;80.17;92415.16;4803927;29;20375;-76
2022/06/21 00:53:43;;;;;;;18.35;8.32;;;;;;;19.21;80.58;92416.19;4787527;29;20049;-75
2022/06/21 00:56:23;;;;;;;19.52;7.80;;;;;;;19.20;80.53;92405.91;4787784;29;20035;-76
2022/06/21 00:58:48;;;;;;;14.40;7.65;;;;;;;19.18;80.36;92398.28;4787674;29;20047;-76
2022/06/21 01:01:26;;;;;;;10.65;7.38;;;;;;;19.18;79.81;92400.91;4798417;29;20059;-76
2022/06/21 01:04:01;;;;;;;19.40;8.57;;;;;;;19.16;80.16;92405.78;4802707;29;20035;-76
2022/06/21 01:06:40;;;;;;;13.05;8.02;;;;;;;19.15;80.26;92398.97;4803783;29;20460;-76
2022/06/21 01:09:14;;;;;;;19.80;9.27;;;;;;;19.13;80.19;92395.88;4803957;29;20446;-76
2022/06/21 01:11:58;;;;;;;12.80;7.25;;;;;;;19.13;80.39;92391.34;4803826;29;20050;-76
2022/06/21 01:14:25;;;;;;;12.15;7.75;;;;;;;19.11;80.29;92387.47;4802669;29;20046;-76
2022/06/21 01:16:51;;;;;;;15.68;7.95;;;;;;;19.09;80.85;92387.06;4802588;29;20077;-76
2022/06/21 01:19:23;;;;;;;12.73;8.32;;;;;;;19.07;80.62;92383.97;4803672;29;20066;-76
2022/06/21 01:21:54;;;;;;;16.33;8.65;;;;;;;19.07;80.52;92384.75;4803256;29;20046;-76
2022/06/21 01:24:32;;;;;;;16.23;8.98;;;;;;;19.05;80.83;92384.31;4807606;29;20465;-76
2022/06/21 01:27:01;;;;;;;16.05;8.30;;;;;;;19.05;81.10;92389.63;4807301;29;20035;-76
2022/06/21 01:29:30;;;;;;;19.77;8.00;;;;;;;19.04;80.83;92382.78;4807147;29;20035;-76
2022/06/21 01:31:59;;;;;;;15.68;8.30;;;;;;;18.99;81.05;92374.31;4805777;29;20042;-76
2022/06/21 01:34:27;;;;;;;20.33;8.80;;;;;;;18.99;81.69;92382.25;4807118;29;20561;-75
2022/06/21 01:37:07;;;;;;;13.82;8.82;;;;;;;18.95;81.85;92381.41;4806978;29;20076;-76
2022/06/21 01:39:49;;;;;;;25.45;8.23;;;;;;;18.92;82.08;92380.97;4805862;29;20068;-76
2022/06/21 01:42:14;;;;;;;;;;;;;;;18.91;82.09;92376.78;4806375;29;20031;-75
2022/06/21 01:44:46;;;;;;;18.08;9.32;;;;;;;18.90;82.21;92374.47;4805886;29;19917;-76
2022/06/21 01:47:19;;;;;;;17.33;10.02;;;;;;;18.90;82.03;92374.47;4805784;29;20063;-76
2022/06/21 01:50:09;;;;;;;23.75;10.38;;;;;;;18.90;82.24;92377.13;4807107;29;20113;-75
2022/06/21 01:52:37;;;;;;;18.88;10.10;;;;;;;18.90;82.08;92375.22;4806882;29;20169;-76
2022/06/21 01:55:13;;;;;;;16.40;10.30;;;;;;;18.89;82.72;92376.34;4806802;29;20069;-76
2022/06/21 01:57:39;;;;;;;22.83;11.15;;;;;;;18.90;82.64;92371.81;4805491;29;20062;-76
2022/06/21 02:00:06;;;;;;;22.83;10.32;;;;;;;18.90;82.42;92372.56;4806594;29;20053;-76
2022/06/21 02:02:38;;;;;;;15.35;10.38;;;;;;;18.90;82.40;92372.56;4806465;29;20050;-75
2022/06/21 02:05:08;;;;;;;17.17;10.52;;;;;;;18.90;82.55;92372.56;4806890;29;20055;-75
2022/06/21 02:07:46;;;;;;;17.65;10.57;;;;;;;18.91;82.66;92374.13;4790350;29;20109;-76
2022/06/21 02:10:33;;;;;;;15.45;9.75;;;;;;;18.91;82.54;92374.13;4806881;29;20502;-76
2022/06/21 02:13:08;;;;;;;19.58;9.82;;;;;;;18.91;82.13;92373.34;4806328;29;20046;-76
2022/06/21 02:15:39;;;;;;;16.25;10.18;;;;;;;18.90;82.13;92371.81;4806251;29;20078;-76
2022/06/21 02:18:09;;;;;;;17.45;10.13;;;;;;;18.87;82.35;92375.16;4806749;29;20331;-76
2022/06/21 02:21:08;;;;;;;23.48;11.05;;;;;;;18.85;81.91;92372.06;4790102;29;20043;-76
2022/06/21 02:23:34;;;;;;;20.00;11.95;;;;;;;18.84;81.86;92373.16;4806060;29;20043;-76
2022/06/21 02:26:00;;;;;;;21.35;11.40;;;;;;;18.82;82.43;92384.09;4806503;29;20039;-75
2022/06/21 02:28:28;;;;;;;22.67;12.85;;;;;;;18.81;82.09;92382.56;4806475;29;20045;-75
2022/06/21 02:30:55;;;;;;;17.77;12.10;;;;;;;18.82;82.34;92378.03;4806130;29;20137;-76
2022/06/21 02:33:23;;;;;;;20.83;12.80;;;;;;;18.79;82.54;92376.84;4789499;29;20074;-76
2022/06/21 02:35:53;;;;;;;21.85;12.90;;;;;;;18.78;82.30;92377.16;4789801;29;20066;-76
2022/06/21 02:38:23;;;;;;;25.75;13.18;;;;;;;18.77;82.59;92384.34;4789964;29;20042;-76
2022/06/21 02:40:56;;;;;;;25.85;13.27;;;;;;;18.77;82.67;92389.66;4805953;29;20408;-76
2022/06/21 02:43:36;;;;;;;30.05;14.10;;;;;;;18.74;82.83;92387.66;4805819;29;20046;-76
2022/06/21 02:46:09;;;;;;;24.02;14.25;;;;;;;18.73;82.85;92402.00;4805963;29;20035;-75
2022/06/21 02:48:41;;;;;;;21.63;13.55;;;;;;;18.71;82.99;92394.41;4806111;29;20045;-76
2022/06/21 02:51:19;;;;;;;26.00;14.80;;;;;;;18.73;83.20;92402.00;4789660;29;20129;-76
2022/06/21 02:53:56;;;;;;;23.40;14.23;;;;;;;18.72;83.41;92401.25;4805640;29;20043;-76
2022/06/21 02:56:31;;;;;;;25.48;14.27;;;;;;;18.70;83.34;92405.34;4805649;29;20069;-76
2022/06/21 02:59:00;;;;;;;27.25;14.77;;;;;;;18.67;83.29;92403.38;4805653;29;20061;-76
2022/06/21 03:01:29;;;;;;;21.35;14.73;;;;;;;18.66;83.03;92404.47;4805919;29;20070;-76
2022/06/21 03:03:57;;;;;;;34.53;14.85;;;;;;;18.61;83.76;92402.84;4805819;29;20057;-76
2022/06/21 03:06:23;;;;;;;22.40;14.75;;;;;;;18.62;83.55;92398.31;4805668;29;20096;-76
2022/06/21 03:08:58;;;;;;;27.50;14.75;;;;;;;18.58;84.45;92397.47;4805668;29;20375;-75
2022/06/21 03:11:28;;;;;;;21.67;14.73;;;;;;;18.58;84.21;92400.88;4789328;29;20046;-75
2022/06/21 03:13:55;;;;;;;20.48;13.88;;;;;;;18.56;84.13;92397.03;4789419;29;20038;-76
2022/06/21 03:16:22;;;;;;;29.23;14.93;;;;;;;18.55;84.11;92403.41;4789149;29;20035;-76
2022/06/21 03:18:53;;;;;;;28.60;14.80;;;;;;;18.56;83.74;92404.97;4789021;29;20485;-76
2022/06/21 03:21:37;;;;;;;26.73;14.48;;;;;;;18.54;84.37;92401.88;4774292;29;20061;-76
2022/06/21 03:24:10;;;;;;;23.42;13.98;;;;;;;18.52;84.87;92410.16;4788886;29;20421;-75
2022/06/21 03:26:38;;;;;;;23.13;13.85;;;;;;;18.48;84.76;92410.06;4805295;29;20455;-76
2022/06/21 03:29:04;;;;;;;21.88;14.70;;;;;;;18.47;85.06;92418.38;4805216;29;20034;-76
2022/06/21 03:31:38;;;;;;;23.05;13.30;;;;;;;18.44;85.20;92417.16;4789018;29;20441;-76
2022/06/21 03:34:13;;;;;;;22.38;13.20;;;;;;;18.44;85.35;92413.72;4804955;29;20034;-76
2022/06/21 03:36:40;;;;;;;26.90;13.35;;;;;;;18.45;85.08;92415.28;4773879;29;20039;-76
2022/06/21 03:39:11;;;;;;;20.60;13.40;;;;;;;18.43;85.44;92415.59;4805120;29;20041;-76
2022/06/21 03:41:44;;;;;;;26.70;13.48;;;;;;;18.42;85.52;92416.72;4789050;29;20100;-76
2022/06/21 03:44:24;;;;;;;26.65;13.05;;;;;;;18.39;85.49;92422.69;4787925;29;20463;-76
2022/06/21 03:47:14;;;;;;;23.33;13.00;;;;;;;18.37;85.37;92416.19;4804897;29;20043;-75
2022/06/21 03:49:48;;;;;;;25.33;11.93;;;;;;;18.38;86.79;92418.50;4804828;29;20438;-76
2022/06/21 03:52:43;;;;;;;22.85;12.73;;;;;;;18.38;86.35;92417.72;4804629;29;20118;-76
2022/06/21 03:55:20;;;;;;;25.73;13.98;;;;;;;18.36;85.99;92418.06;4804784;29;20060;-76
2022/06/21 03:57:57;;;;;;;25.05;12.32;;;;;;;18.35;86.09;92421.03;4804857;29;20051;-76
2022/06/21 04:00:29;;;;;;;24.52;12.65;;;;;;;18.33;86.51;92413.44;4804696;29;20055;-76
2022/06/21 04:03:15;;;;;;;19.90;12.93;;;;;;;18.34;86.42;92420.28;4804450;29;20141;-76
2022/06/21 04:05:48;;;;;;;24.63;13.18;;;;;;;18.33;86.79;92421.38;4804495;29;20521;-76
2022/06/21 04:08:22;;;;;;;27.58;13.95;;;;;;;18.38;87.00;92423.03;4804783;29;20038;-76
2022/06/21 04:11:00;;;;;;;23.27;13.13;;;;;;;18.37;86.48;92424.88;4804525;29;20129;-76
2022/06/21 04:13:49;;;;;;;28.13;13.18;;;;;;;18.36;86.39;92414.63;4804380;29;20038;-75
2022/06/21 04:16:22;;;;;;;18.55;12.98;;;;;;;18.39;86.60;92421.91;4804762;29;20046;-75
2022/06/21 04:19:21;;;;;;;21.98;13.98;;;;;;;18.39;86.81;92430.63;4804353;29;20406;-76
2022/06/21 04:21:58;;;;;;;26.40;14.07;;;;;;;18.40;87.19;92431.41;4786037;29;20418;-76
2022/06/21 04:24:38;;;;;;;23.73;14.27;;;;;;;18.40;87.33;92437.50;4788149;29;20458;-75
2022/06/21 04:27:10;;;;;;;21.50;14.07;;;;;;;18.42;87.25;92427.31;4804052;29;20504;-76
2022/06/21 04:29:40;;;;;;;;;;;;;;;18.44;87.62;92435.72;4788584;29;20042;-76
2022/06/21 04:32:34;;;;;;;31.92;14.48;;;;;;;18.48;87.30;92436.56;4788412;29;19925;-76
2022/06/21 04:35:06;;;;;;;24.15;13.88;;;;;;;18.51;86.92;92433.25;4801394;29;20397;-76
2022/06/21 04:37:41;;;;;;;27.55;15.63;;;;;;;18.56;87.12;92440.19;4804031;29;20130;-76
2022/06/21 04:40:15;;;;;;;25.02;14.77;;;;;;;18.58;87.27;92443.28;4787964;29;20051;-76
2022/06/21 04:42:52;;;;;;;24.13;15.52;;;;;;;18.63;87.45;92451.00;4804023;29;20042;-76
2022/06/21 04:45:28;;;;;;;28.63;16.52;;;;;;;18.69;87.31;92448.88;4803981;29;20049;-76
2022/06/21 04:48:02;;;;;;;27.85;16.15;;;;;;;18.77;86.66;92447.19;4787743;29;20058;-76
2022/06/21 04:50:42;;;;;;;27.65;16.55;;;;;;;18.86;86.61;92443.31;4787943;29;20048;-76
2022/06/21 04:53:20;;;;;;;26.40;16.58;;;;;;;18.95;86.64;92448.47;4787626;29;20074;-76
2022/06/21 04:56:14;;;;;;;27.58;15.48;;;;;;;19.07;85.94;92452.94;4787460;29;20039;-76
2022/06/21 04:58:40;;;;;;;27.98;17.27;;;;;;;19.18;85.89;92467.25;4778394;29;20554;-76
2022/06/21 05:03:52;;;;;;;26.80;16.13;;;;;;;19.40;85.02;92465.16;4803978;29;20050;-76
2022/06/21 05:06:18;;;;;;;26.98;15.48;;;;;;;19.47;84.78;92468.75;4804058;29;20035;-76
2022/06/21 05:08:47;;;;;;;29.67;16.05;;;;;;;19.55;84.17;92467.06;4772934;29;20513;-76
2022/06/21 05:11:13;;;;;;;29.73;15.65;;;;;;;19.66;84.47;92468.09;4803752;29;20113;-76
2022/06/21 05:13:47;;;;;;;20.50;14.55;;;;;;;19.74;84.16;92472.47;4803569;29;20523;-76
2022/06/21 05:16:18;;;;;;;25.65;15.02;;;;;;;19.83;83.46;92468.88;4787388;29;20494;-76
2022/06/21 05:19:09;;;;;;;24.40;15.00;;;;;;;19.90;82.85;92479.66;4803804;29;20409;-76
2022/06/21 05:22:05;;;;;;;25.20;15.52;;;;;;;19.99;82.69;92474.19;4772598;29;20053;-76
2022/06/21 05:24:31;;;;;;;24.30;14.82;;;;;;;20.10;82.81;92475.97;4803759;29;20119;-76
2022/06/21 05:27:18;;;;;;;23.58;15.07;;;;;;;20.22;81.40;92471.66;4803781;29;20154;-76
2022/06/21 05:29:54;;;;;;;31.88;14.75;;;;;;;20.34;81.08;92466.25;4787621;29;20043;-76
2022/06/21 05:32:26;;;;;;;21.67;15.23;;;;;;;20.38;82.14;92467.09;4787312;29;20061;-76
2022/06/21 05:34:55;;;;;;;26.80;16.00;;;;;;;20.37;83.30;92470.84;4803586;29;20451;-76
2022/06/21 05:37:31;;;;;;;26.00;15.27;;;;;;;20.37;80.79;92460.22;4803309;29;20083;-76
2022/06/21 05:40:00;;;;;;;53.05;16.55;;;;;;;20.42;81.18;92451.97;4787364;29;20525;-76
2022/06/21 05:42:28;;;;;;;31.02;16.90;;;;;;;20.48;81.43;92466.53;4803582;29;20409;-76
2022/06/21 05:45:01;;;;;;;30.83;16.48;;;;;;;20.64;81.88;92460.44;4803387;29;20026;-76
2022/06/21 05:47:40;;;;;;;25.90;16.08;;;;;;;20.95;81.77;92462.94;4787429;29;20046;-76
2022/06/21 05:50:08;;;;;;;27.25;16.45;;;;;;;21.29;80.44;92455.19;4803463;29;20046;-76
2022/06/21 05:52:37;;;;;;;28.48;16.02;;;;;;;21.59;76.31;92460.72;4803411;29;20052;-76
2022/06/21 05:55:16;;;;;;;32.00;17.23;;;;;;;21.92;76.37;92464.66;4803685;29;20101;-76
2022/06/21 05:57:59;;;;;;;30.50;16.90;;;;;;;22.25;73.56;92457.94;4803388;29;20092;-76
2022/06/21 06:00:39;;;;;;;42.78;17.00;;;;;;;22.31;75.13;92461.06;4805101;29;20069;-76
2022/06/21 06:03:09;;;;;;;28.98;16.55;;;;;;;22.87;72.74;92454.91;4787380;29;20039;-76
2022/06/21 06:05:36;;;;;;;39.25;16.83;;;;;;;23.07;72.42;92460.91;4787198;29;20134;-76
2022/06/21 06:08:14;;;;;;;36.30;16.10;;;;;;;23.16;71.61;92460.63;4804459;29;20045;-76
2022/06/21 06:10:43;;;;;;;28.23;16.02;;;;;;;23.50;70.90;92456.00;4806782;29;20038;-76
2022/06/21 06:13:14;;;;;;;32.58;15.40;;;;;;;24.05;68.70;92448.09;4806618;29;20047;-76
2022/06/21 06:15:48;;;;;;;27.85;16.42;;;;;;;24.19;66.70;92447.44;4806695;29;20070;-76
2022/06/21 06:18:35;;;;;;;27.58;15.93;;;;;;;23.88;67.16;92449.47;4790617;29;20101;-76
2022/06/21 06:21:06;;;;;;;25.88;16.13;;;;;;;23.83;66.97;92451.75;4790461;29;20083;-76
2022/06/21 06:23:41;;;;;;;33.53;16.35;;;;;;;23.67;68.68;92450.06;4806365;29;20487;-76
2022/06/21 06:26:15;;;;;;;28.60;16.52;;;;;;;23.66;68.87;92450.41;4806358;29;20446;-76
2022/06/21 06:28:52;;;;;;;34.42;18.15;;;;;;;23.45;69.85;92453.66;4806205;29;20051;-76
2022/06/21 06:31:24;;;;;;;31.73;17.30;;;;;;;23.30;70.22;92444.72;4790069;29;20054;-76
2022/06/21 06:33:58;;;;;;;32.42;17.95;;;;;;;23.44;71.27;92457.47;4789963;29;20057;-76
2022/06/21 06:36:49;;;;;;;26.65;16.33;;;;;;;23.65;69.47;92456.91;4806119;29;20084;-76
2022/06/21 06:39:22;;;;;;;29.30;16.58;;;;;;;24.09;67.18;92453.44;4782945;29;20058;-76
2022/06/21 06:41:54;;;;;;;29.58;16.67;;;;;;;24.48;65.33;92456.41;4789686;29;20034;-76
2022/06/21 06:44:23;;;;;;;24.15;14.98;;;;;;;24.71;62.89;92456.16;4805948;29;20046;-76
2022/06/21 06:46:51;;;;;;;31.67;15.27;;;;;;;24.98;60.69;92466.59;4805957;29;20483;-76
2022/06/21 06:49:22;;;;;;;29.15;15.93;;;;;;;24.95;61.88;92472.72;4805878;29;20573;-76
2022/06/21 06:52:00;;;;;;;31.33;16.40;;;;;;;24.54;63.73;92491.59;4805760;29;20043;-76
2022/06/21 06:54:56;;;;;;;28.67;17.83;;;;;;;23.95;66.75;92490.78;4789897;29;20046;-76
2022/06/21 06:57:33;;;;;;;36.08;17.52;;;;;;;23.84;68.70;92494.13;4804363;29;20138;-76
2022/06/21 07:00:00;;;;;;;40.88;18.45;;;;;;;23.40;70.67;92510.09;4789294;29;20065;-76
2022/06/21 07:02:41;;;;;;;31.58;18.88;;;;;;;23.15;72.66;92515.16;4805768;29;20042;-76
2022/06/21 07:05:17;;;;;;;34.90;20.00;;;;;;;23.03;72.38;92511.59;4805482;29;20031;-76
2022/06/21 07:07:52;;;;;;;39.30;17.67;;;;;;;23.09;72.55;92506.69;4805552;29;20504;-76
2022/06/21 07:10:22;;;;;;;26.02;17.15;;;;;;;23.15;71.20;92504.47;4789367;29;20038;-76
2022/06/21 07:12:50;;;;;;;28.48;18.38;;;;;;;22.79;73.04;92499.44;4789197;29;20088;-76
2022/06/21 07:15:17;;;;;;;31.15;17.65;;;;;;;22.88;73.20;92501.84;4805348;29;20046;-76
2022/06/21 07:17:51;;;;;;;29.25;18.08;;;;;;;22.85;72.98;92507.88;4789143;29;20138;-76
2022/06/21 07:20:39;;;;;;;32.78;19.08;;;;;;;22.69;72.61;92488.63;4805368;29;20042;-76
2022/06/21 07:23:13;;;;;;;31.17;18.98;;;;;;;22.90;72.96;92496.91;4805233;29;20046;-76
2022/06/21 07:25:44;;;;;;;26.83;18.77;;;;;;;23.07;72.41;92488.34;4805148;29;20084;-76
2022/06/21 07:28:17;;;;;;;29.33;17.42;;;;;;;23.30;70.99;92489.38;4805281;29;20134;-76
2022/06/21 07:30:48;;;;;;;28.05;18.08;;;;;;;23.17;71.64;92475.50;4805088;29;20398;-76
2022/06/21 07:33:25;;;;;;;36.22;18.55;;;;;;;23.16;71.50;92473.97;4805101;29;20490;-76
2022/06/21 07:36:12;;;;;;;38.90;17.92;;;;;;;23.10;72.72;92478.09;4788932;29;20129;-76
2022/06/21 07:38:41;;;;;;;30.58;18.55;;;;;;;23.04;71.43;92478.41;4805052;29;20043;-76
2022/06/21 07:41:13;;;;;;;50.20;18.70;;;;;;;22.97;72.05;92474.88;4789544;29;20091;-76
2022/06/21 07:43:51;;;;;;;38.55;17.35;;;;;;;22.77;70.65;92466.25;4788731;29;20042;-76
2022/06/21 07:46:28;;;;;;;37.38;20.60;;;;;;;22.78;71.67;92467.78;4805115;29;20096;-76
2022/06/21 07:49:05;;;;;;;41.58;20.13;;;;;;;22.90;71.02;92467.56;4804767;29;20529;-76
2022/06/21 07:51:37;;;;;;;37.55;19.88;;;;;;;23.14;71.33;92468.97;4788657;29;20134;-76
2022/06/21 07:54:06;;;;;;;34.42;18.55;;;;;;;23.36;69.78;92472.66;4788487;29;20043;-75
2022/06/21 07:56:47;;;;;;;37.92;17.73;;;;;;;23.14;70.82;92468.22;4804525;29;20063;-76
2022/06/21 07:59:25;;;;;;;33.83;18.90;;;;;;;23.29;69.85;92467.25;4788165;29;20038;-76
2022/06/21 08:07:45;;;;;;;33.25;17.10;;;;;;;23.32;68.67;92465.75;4788214;29;20126;-76
2022/06/21 08:10:13;;;;;;;27.83;18.20;;;;;;;23.18;68.99;92469.03;4804514;29;20099;-76
2022/06/21 08:12:39;;;;;;;30.92;17.80;;;;;;;23.18;69.19;92469.78;4804617;29;20053;-76
2022/06/21 08:15:05;;;;;;;33.78;20.02;;;;;;;23.45;68.80;92465.13;4788024;29;20047;-76
2022/06/21 08:17:40;;;;;;;29.08;17.98;;;;;;;23.77;68.13;92474.59;4788376;29;20050;-76
2022/06/21 08:20:29;;;;;;;25.65;15.63;;;;;;;23.86;65.52;92475.81;4804307;29;20042;-76
2022/06/21 08:23:03;;;;;;;35.30;16.98;;;;;;;23.88;65.14;92475.44;4804671;29;20035;-76
2022/06/21 08:25:40;;;;;;;29.35;16.60;;;;;;;24.05;66.73;92480.19;4804139;29;20043;-76
2022/06/21 08:28:24;;;;;;;27.60;15.95;;;;;;;24.14;66.31;92484.44;4804536;29;20031;-76
2022/06/21 08:30:53;;;;;;;29.13;17.08;;;;;;;24.04;65.32;92488.56;4803953;29;20035;-76
2022/06/21 08:33:43;;;;;;;30.77;16.05;;;;;;;23.97;67.50;92489.28;4804411;29;20395;-76
2022/06/21 08:36:15;;;;;;;35.40;17.25;;;;;;;23.64;68.47;92487.41;4804211;29;20047;-76
2022/06/21 08:38:45;;;;;;;;;;;;;;;23.35;68.56;92500.50;4804742;29;20405;-76
2022/06/21 08:41:52;;;;;;;36.25;17.13;;;;;;;23.42;68.24;92497.91;4788508;29;20404;-76
2022/06/21 08:44:39;;;;;;;31.00;17.53;;;;;;;23.43;69.57;92498.66;4803937;29;20038;-76
2022/06/21 08:47:10;;;;;;;30.52;17.58;;;;;;;23.49;67.50;92479.28;4788122;29;20050;-76
2022/06/21 08:50:03;;;;;;;33.05;17.30;;;;;;;23.22;71.33;92477.84;4788040;29;20048;-76
2022/06/21 08:52:50;;;;;;;24.80;16.13;;;;;;;23.18;70.66;92485.81;4804203;29;20049;-76
2022/06/21 08:55:33;;;;;;;27.00;16.08;;;;;;;23.28;69.86;92497.75;4804098;29;20035;-76
2022/06/21 08:58:06;;;;;;;27.00;18.20;;;;;;;23.15;70.96;92509.81;4804024;29;20043;-76
2022/06/21 09:00:38;;;;;;;29.20;17.73;;;;;;;23.34;69.84;92514.22;4803726;29;20065;-76
2022/06/21 09:03:55;;;;;;;25.15;16.13;;;;;;;23.68;69.37;92510.38;4787735;29;20090;-76
2022/06/21 09:06:41;;;;;;;29.48;17.13;;;;;;;23.95;68.74;92502.25;4747740;30;20051;-77
2022/06/21 09:09:39;;;;;;;29.00;16.63;;;;;;;23.73;70.32;92473.75;4747836;30;20535;-76
2022/06/21 09:12:35;;;;;;;30.33;17.58;;;;;;;23.54;70.79;92462.16;4793861;29;20051;-76
2022/06/21 09:15:24;;;;;;;28.92;16.95;;;;;;;23.42;72.53;92481.88;4803902;29;20130;-76
2022/06/21 09:17:59;;;;;;;25.05;15.82;;;;;;;23.28;72.44;92484.38;4803680;29;20125;-76
2022/06/21 09:20:50;;;;;;;34.13;16.85;;;;;;;23.23;71.56;92474.81;4788580;29;20043;-76
2022/06/21 09:23:21;;;;;;;31.80;18.92;;;;;;;23.18;71.75;92456.44;4804426;29;20038;-75
2022/06/21 09:26:23;;;;;;;34.90;18.58;;;;;;;23.31;69.58;92464.97;4803706;29;20046;-76
2022/06/21 09:28:55;;;;;;;34.22;20.92;;;;;;;23.39;69.67;92460.47;4787595;29;20073;-76
2022/06/21 09:31:48;;;;;;;32.20;17.58;;;;;;;23.75;69.75;92463.50;4787417;29;20127;-76
2022/06/21 09:34:37;;;;;;;34.90;17.73;;;;;;;24.20;68.14;92462.31;4804697;29;20286;-76
2022/06/21 09:37:28;;;;;;;29.50;18.23;;;;;;;24.55;67.56;92458.38;4804522;29;20046;-77
2022/06/21 09:39:57;;;;;;;31.80;19.25;;;;;;;24.33;66.73;92448.66;4787666;29;20034;-76
2022/06/21 09:43:01;;;;;;;32.67;18.42;;;;;;;24.34;67.13;92439.47;4787417;29;20030;-76
2022/06/21 09:45:41;;;;;;;25.52;15.85;;;;;;;24.21;66.91;92437.13;4799322;29;20119;-76
2022/06/21 09:48:52;;;;;;;29.92;17.83;;;;;;;24.40;67.81;92443.34;4807062;29;20624;-76
2022/06/21 09:51:35;;;;;;;30.85;17.85;;;;;;;24.64;64.66;92442.75;4806795;29;20119;-76
2022/06/21 09:54:25;;;;;;;27.70;16.90;;;;;;;24.82;64.82;92460.81;4790404;29;20043;-76
2022/06/21 09:57:17;;;;;;;26.02;16.85;;;;;;;24.52;65.17;92448.44;4790485;29;20046;-76
2022/06/21 09:59:51;;;;;;;29.70;16.92;;;;;;;24.43;63.40;92439.91;4785162;29;20047;-76
2022/06/21 10:02:16;;;;;;;23.42;16.00;;;;;;;25.04;62.91;92441.00;4806856;29;20054;-76
2022/06/21 10:05:10;;;;;;;26.17;16.13;;;;;;;25.49;61.16;92438.84;4806562;29;20035;-76
2022/06/21 10:08:09;;;;;;;28.48;15.43;;;;;;;25.94;60.55;92441.97;4790367;29;20093;-76
2022/06/21 10:10:49;;;;;;;25.35;15.88;;;;;;;26.13;58.98;92448.09;4802924;29;20047;-76
2022/06/21 10:13:41;;;;;;;25.45;15.20;;;;;;;26.49;58.51;92438.06;4790397;29;20053;-76
2022/06/21 10:16:35;;;;;;;28.02;16.00;;;;;;;26.99;56.95;92437.94;4790220;29;20035;-76
2022/06/21 10:19:13;;;;;;;27.27;16.23;;;;;;;27.33;54.85;92436.66;4806526;29;20118;-76
2022/06/21 10:22:05;;;;;;;24.10;14.73;;;;;;;26.78;55.57;92444.16;4790187;29;20057;-76
2022/06/21 10:24:53;;;;;;;23.58;13.95;;;;;;;26.51;56.98;92453.78;4806522;29;20047;-76
2022/06/21 10:27:58;;;;;;;24.08;14.20;;;;;;;26.16;56.56;92444.63;4806294;29;20035;-76
2022/06/21 10:30:56;;;;;;;28.92;15.25;;;;;;;26.25;58.35;92444.25;4806383;29;20494;-76
2022/06/21 10:33:50;;;;;;;32.15;15.15;;;;;;;26.35;58.75;92441.53;4806165;29;20035;-76
2022/06/21 10:36:41;;;;;;;28.63;15.45;;;;;;;26.42;58.25;92442.69;4789754;29;20046;-76
2022/06/21 10:39:37;;;;;;;31.20;14.88;;;;;;;26.36;58.75;92426.97;4806505;29;20103;-76
2022/06/21 10:45:59;;;;;;;23.08;14.73;;;;;;;26.56;57.51;92453.41;4789237;29;20425;-76
2022/06/21 10:48:52;;;;;;;28.15;14.63;;;;;;;26.87;57.28;92456.41;4797612;29;20054;-76
2022/06/21 10:51:27;;;;;;;22.75;13.05;;;;;;;26.81;57.72;92431.09;4775212;29;20038;-76
2022/06/21 10:54:06;;;;;;;25.00;12.15;;;;;;;26.87;59.56;92430.31;4790543;29;20537;-76
2022/06/21 11:02:54;;;;;;;16.77;13.10;;;;;;;26.46;59.47;92425.44;4807004;29;20039;-76
2022/06/21 11:05:38;;;;;;;29.08;13.93;;;;;;;26.53;58.56;92422.72;4805558;29;20141;-76
2022/06/21 11:08:12;;;;;;;28.45;13.43;;;;;;;26.69;58.23;92418.88;4789484;29;20030;-76
2022/06/21 11:10:50;;;;;;;23.75;14.05;;;;;;;26.57;56.84;92412.78;4805458;29;20043;-76
2022/06/21 11:13:20;;;;;;;21.27;11.45;;;;;;;26.73;56.73;92415.03;4789402;29;20127;-76
2022/06/21 11:16:09;;;;;;;22.08;12.95;;;;;;;26.69;57.51;92410.81;4805272;29;20039;-76
2022/06/21 11:18:53;;;;;;;27.98;13.45;;;;;;;26.66;58.09;92411.59;4805414;29;20039;-76
2022/06/21 11:21:42;;;;;;;25.13;13.38;;;;;;;26.71;55.69;92416.56;4805399;29;20042;-76
2022/06/21 11:24:09;;;;;;;27.60;15.50;;;;;;;26.70;55.00;92405.03;4805187;29;20068;-76
2022/06/21 11:26:59;;;;;;;21.05;12.90;;;;;;;26.96;56.48;92413.78;4805203;29;20510;-76
2022/06/21 11:29:52;;;;;;;23.35;13.85;;;;;;;26.98;58.52;92401.50;4805405;29;20046;-76
2022/06/21 11:32:36;;;;;;;27.20;11.68;;;;;;;26.85;59.48;92399.63;4789006;29;20459;-76
2022/06/21 11:35:07;;;;;;;35.80;15.60;;;;;;;26.71;58.36;92408.53;4788899;29;20043;-76
2022/06/21 11:37:41;;;;;;;27.42;14.32;;;;;;;26.72;59.29;92402.75;4804941;29;20038;-76
2022/06/21 11:40:43;;;;;;;20.70;14.02;;;;;;;26.51;59.02;92392.06;4804957;29;20102;-76
2022/06/21 11:43:19;;;;;;;23.85;14.52;;;;;;;26.33;58.58;92398.22;4788806;29;20334;-76
2022/06/21 11:45:53;;;;;;;27.27;14.35;;;;;;;26.79;59.05;92397.38;4788835;29;20042;-76
2022/06/21 11:48:31;;;;;;;25.75;13.30;;;;;;;26.81;59.20;92385.47;4804915;29;20206;-76
2022/06/21 11:51:11;;;;;;;29.75;14.85;;;;;;;26.98;59.67;92381.94;4788539;29;20035;-76
2022/06/21 11:53:58;;;;;;;21.65;14.80;;;;;;;26.91;58.75;92381.97;4788556;29;20071;-76
2022/06/21 11:56:30;;;;;;;26.60;14.90;;;;;;;27.26;57.42;92381.03;4788418;29;20042;-76
2022/06/21 11:59:04;;;;;;;28.02;14.95;;;;;;;27.64;57.45;92378.47;4804843;29;20039;-76
2022/06/21 12:01:42;;;;;;;27.63;15.77;;;;;;;27.93;56.65;92376.34;4804509;29;20090;-76
2022/06/21 12:04:35;;;;;;;24.52;13.95;;;;;;;28.07;55.53;92383.50;4804759;29;20049;-77
2022/06/21 12:07:36;;;;;;;25.40;14.30;;;;;;;28.05;55.67;92409.28;4803747;29;20083;-76
2022/06/21 12:10:14;;;;;;;27.75;14.70;;;;;;;27.48;56.62;92413.91;4768306;29;20086;-76
2022/06/21 12:12:53;;;;;;;21.45;14.10;;;;;;;27.02;59.18;92443.69;4804464;29;20046;-76
2022/06/21 12:15:45;;;;;;;25.90;14.88;;;;;;;26.49;61.10;92477.56;4804705;29;20106;-76
2022/06/21 12:18:22;;;;;;;24.42;14.40;;;;;;;26.24;62.44;92474.91;4788166;29;20035;-76
2022/06/21 12:20:55;;;;;;;22.23;14.30;;;;;;;26.09;63.38;92479.50;4804293;29;20046;-76
2022/06/21 12:23:30;;;;;;;24.48;14.05;;;;;;;25.99;64.33;92462.28;4804288;29;20134;-76